createdAt,value
2018-07-02T00:01:36.772Z,122.02
2018-07-02T00:04:08.070Z,124.55
2018-07-02T00:06:50.099Z,127.67
2018-07-02T00:09:21.453Z,128.45
2018-07-02T00:11:52.825Z,127.32
2018-07-02T00:14:24.032Z,131.37
2018-07-02T00:16:55.388Z,124.30
2018-07-02T00:19:26.689Z,124.92
2018-07-02T00:21:58.125Z,122.92
2018-07-02T00:24:29.371Z,123.95
2018-07-02T00:27:00.590Z,122.17
2018-07-02T00:29:31.784Z,120.80
2018-07-02T00:32:03.092Z,118.47
2018-07-02T00:34:34.330Z,123.25
2018-07-02T00:37:05.919Z,122.53
2018-07-02T00:39:37.197Z,121.97
2018-07-02T00:42:08.479Z,125.80
2018-07-02T00:44:39.688Z,121.77
2018-07-02T00:47:11.061Z,127.22
2018-07-02T00:49:42.380Z,125.87
2018-07-02T00:52:13.784Z,123.80
2018-07-02T00:54:45.116Z,122.02
2018-07-02T00:57:16.334Z,127.62
2018-07-02T00:59:47.976Z,122.15
2018-07-02T01:02:19.247Z,120.42
2018-07-02T01:04:50.665Z,116.12
2018-07-02T01:07:21.871Z,126.40
2018-07-02T01:09:53.239Z,122.40
2018-07-02T01:12:24.539Z,126.18
2018-07-02T01:14:55.888Z,120.70
2018-07-02T01:17:27.068Z,126.60
2018-07-02T01:19:58.405Z,118.35
2018-07-02T01:22:29.639Z,121.35
2018-07-02T01:25:00.944Z,121.07
2018-07-02T01:27:34.595Z,123.28
2018-07-02T01:30:06.876Z,122.40
2018-07-02T01:32:38.182Z,123.07
2018-07-02T01:35:09.803Z,118.77
2018-07-02T01:37:41.068Z,122.45
2018-07-02T01:40:12.342Z,125.12
2018-07-02T01:42:43.534Z,128.53
2018-07-02T01:45:14.916Z,125.53
2018-07-02T01:47:46.125Z,120.57
2018-07-02T01:50:17.382Z,117.25
2018-07-02T01:52:48.692Z,122.42
2018-07-02T01:55:19.992Z,121.10
2018-07-02T01:57:51.167Z,125.00
2018-07-02T02:00:22.478Z,122.47
2018-07-02T02:02:53.548Z,119.28
2018-07-02T02:05:24.744Z,121.10
2018-07-02T02:07:56.199Z,119.05
2018-07-02T02:10:27.583Z,121.53
2018-07-02T02:12:59.024Z,118.22
2018-07-02T02:15:30.462Z,117.10
2018-07-02T02:18:01.790Z,116.53
2018-07-02T02:20:33.142Z,121.45
2018-07-02T02:23:04.373Z,113.22
2018-07-02T02:25:35.694Z,112.88
2018-07-02T02:28:07.057Z,118.33
2018-07-02T02:30:38.651Z,118.65
2018-07-02T02:33:10.331Z,117.03
2018-07-02T02:35:41.635Z,120.17
2018-07-02T02:38:13.226Z,113.55
2018-07-02T02:40:44.467Z,114.92
2018-07-02T02:43:15.772Z,113.08
2018-07-02T02:45:46.965Z,115.57
2018-07-02T02:48:18.332Z,115.57
2018-07-02T02:50:49.547Z,117.45
2018-07-02T02:53:20.893Z,117.72
2018-07-02T02:55:52.144Z,120.57
2018-07-02T02:58:23.374Z,122.47
2018-07-02T03:00:54.628Z,118.60
2018-07-02T03:03:25.925Z,120.37
2018-07-02T03:05:57.179Z,127.97
2018-07-02T03:08:28.635Z,118.67
2018-07-02T03:10:59.968Z,121.90
2018-07-02T03:13:31.304Z,122.80
2018-07-02T03:16:02.757Z,122.42
2018-07-02T03:18:34.005Z,118.37
2018-07-02T03:21:05.278Z,115.80
2018-07-02T03:23:36.760Z,114.22
2018-07-02T03:26:08.073Z,122.75
2018-07-02T03:28:39.460Z,119.08
2018-07-02T03:31:11.081Z,118.33
2018-07-02T03:33:42.316Z,116.00
2018-07-02T03:36:13.628Z,116.00
2018-07-02T03:38:44.795Z,118.22
2018-07-02T03:41:16.122Z,119.80
2018-07-02T03:43:47.601Z,117.20
2018-07-02T03:46:18.784Z,112.12
2018-07-02T03:48:49.959Z,115.67
2018-07-02T03:51:21.496Z,113.90
2018-07-02T03:53:52.727Z,115.50
2018-07-02T03:56:23.976Z,116.28
2018-07-02T03:58:55.306Z,120.13
2018-07-02T04:01:26.600Z,114.40
2018-07-02T04:03:57.920Z,115.35
2018-07-02T04:06:29.101Z,119.02
2018-07-02T04:09:00.327Z,119.47
2018-07-02T04:11:31.598Z,118.77
2018-07-02T04:14:02.909Z,118.87
2018-07-02T04:16:34.188Z,118.65
2018-07-02T04:19:13.676Z,118.50
2018-07-02T04:21:45.087Z,119.17
2018-07-02T04:24:16.506Z,122.02
2018-07-02T04:26:47.691Z,115.37
2018-07-02T04:29:19.027Z,119.15
2018-07-02T04:31:50.156Z,114.67
2018-07-02T04:34:21.363Z,117.53
2018-07-02T04:36:52.698Z,116.80
2018-07-02T04:39:27.324Z,120.57
2018-07-02T04:41:58.572Z,123.20
2018-07-02T04:44:29.912Z,122.82
2018-07-02T04:47:01.341Z,123.42
2018-07-02T04:49:32.747Z,126.82
2018-07-02T04:52:04.500Z,120.90
2018-07-02T04:54:35.827Z,126.27
2018-07-02T04:57:07.216Z,125.02
2018-07-02T04:59:38.931Z,129.20
2018-07-02T05:02:10.184Z,130.70
2018-07-02T05:04:41.271Z,124.25
2018-07-02T05:07:12.979Z,126.12
2018-07-02T05:09:45.303Z,125.42
2018-07-02T05:12:16.725Z,128.80
2018-07-02T05:14:47.963Z,129.03
2018-07-02T05:17:20.046Z,128.90
2018-07-02T05:19:51.815Z,126.35
2018-07-02T05:22:23.104Z,124.67
2018-07-02T05:24:54.407Z,136.00
2018-07-02T05:27:25.730Z,131.45
2018-07-02T05:29:56.907Z,133.15
2018-07-02T05:32:28.117Z,132.27
2018-07-02T05:34:59.332Z,130.85
2018-07-02T05:37:30.436Z,132.65
2018-07-02T05:40:01.711Z,136.68
2018-07-02T05:42:33.496Z,133.12
2018-07-02T05:45:04.723Z,132.15
2018-07-02T05:47:35.993Z,134.63
2018-07-02T05:50:07.710Z,134.18
2018-07-02T05:52:43.858Z,132.45
2018-07-02T05:55:15.464Z,137.28
2018-07-02T05:57:46.679Z,136.77
2018-07-02T06:00:18.115Z,134.72
2018-07-02T06:02:49.335Z,189.72
2018-07-02T06:05:21.377Z,137.00
2018-07-02T06:07:53.377Z,130.80
2018-07-02T06:10:24.439Z,129.65
2018-07-02T06:12:55.612Z,133.32
2018-07-02T06:15:26.845Z,139.65
2018-07-02T06:18:07.251Z,138.62
2018-07-02T06:20:39.021Z,137.82
2018-07-02T06:23:10.286Z,142.28
2018-07-02T06:25:41.577Z,139.05
2018-07-02T06:28:12.768Z,135.78
2018-07-02T06:30:44.236Z,136.32
2018-07-02T06:33:15.408Z,136.52
2018-07-02T06:35:46.526Z,140.80
2018-07-02T06:38:17.640Z,137.50
2018-07-02T06:40:49.241Z,139.22
2018-07-02T06:43:20.429Z,136.40
2018-07-02T06:45:51.727Z,138.12
2018-07-02T06:48:23.029Z,137.28
2018-07-02T06:50:54.221Z,136.92
2018-07-02T06:53:25.422Z,132.93
2018-07-02T06:55:56.688Z,136.20
2018-07-02T06:58:27.946Z,139.80
2018-07-02T07:00:59.390Z,135.52
2018-07-02T07:03:31.968Z,140.70
2018-07-02T07:06:03.515Z,138.85
2018-07-02T07:08:34.762Z,142.75
2018-07-02T07:11:05.932Z,139.95
2018-07-02T07:13:37.116Z,140.92
2018-07-02T07:16:08.430Z,139.97
2018-07-02T07:18:46.845Z,137.28
2018-07-02T07:21:20.424Z,137.45
2018-07-02T07:23:51.867Z,141.95
2018-07-02T07:26:23.104Z,138.65
2018-07-02T07:28:54.430Z,137.05
2018-07-02T07:31:25.513Z,137.57
2018-07-02T07:33:56.842Z,138.28
2018-07-02T07:36:28.069Z,139.70
2018-07-02T07:38:59.375Z,136.12
2018-07-02T07:41:30.940Z,140.25
2018-07-02T07:44:02.266Z,139.88
2018-07-02T07:46:33.460Z,137.82
2018-07-02T07:49:04.700Z,139.68
2018-07-02T07:51:37.591Z,139.52
2018-07-02T07:54:10.766Z,136.90
2018-07-02T07:56:48.830Z,141.28
2018-07-02T07:59:20.381Z,141.30
2018-07-02T08:01:51.758Z,138.22
2018-07-02T08:04:22.918Z,146.18
2018-07-02T08:06:54.437Z,142.70
2018-07-02T08:09:25.765Z,139.92
2018-07-02T08:11:57.896Z,137.82
2018-07-02T08:14:29.170Z,137.80
2018-07-02T08:17:00.623Z,136.65
2018-07-02T08:19:32.066Z,138.72
2018-07-02T08:22:03.361Z,139.25
2018-07-02T08:24:34.769Z,135.90
2018-07-02T08:27:06.203Z,139.45
2018-07-02T08:29:37.683Z,143.05
2018-07-02T08:32:09.266Z,139.85
2018-07-02T08:34:41.150Z,142.98
2018-07-02T08:37:12.473Z,139.57
2018-07-02T08:39:43.993Z,139.50
2018-07-02T08:42:15.298Z,143.07
2018-07-02T08:44:46.535Z,144.53
2018-07-02T08:47:17.783Z,138.97
2018-07-02T08:49:49.500Z,136.97
2018-07-02T08:52:20.782Z,137.85
2018-07-02T08:54:51.937Z,140.75
2018-07-02T08:57:23.366Z,143.28
2018-07-02T08:59:54.725Z,135.97
2018-07-02T09:02:26.088Z,134.82
2018-07-02T09:04:57.647Z,134.52
2018-07-02T09:07:28.936Z,133.60
2018-07-02T09:10:00.319Z,133.90
2018-07-02T09:12:31.609Z,141.88
2018-07-02T09:15:03.062Z,139.10
2018-07-02T09:17:35.229Z,139.52
2018-07-02T09:20:06.716Z,136.62
2018-07-02T09:22:38.048Z,140.15
2018-07-02T09:25:10.271Z,135.70
2018-07-02T09:27:41.735Z,137.72
2018-07-02T09:30:13.237Z,139.75
2018-07-02T09:32:44.697Z,137.37
2018-07-02T09:35:17.047Z,140.62
2018-07-02T09:37:48.281Z,138.37
2018-07-02T09:40:19.751Z,138.30
2018-07-02T09:42:53.634Z,140.40
2018-07-02T09:45:29.614Z,140.55
2018-07-02T09:48:05.583Z,138.07
2018-07-02T09:50:41.120Z,138.77
2018-07-02T09:53:29.253Z,138.18
2018-07-02T09:56:03.177Z,138.32
2018-07-02T09:58:34.606Z,135.03
2018-07-02T10:01:06.014Z,141.60
2018-07-02T10:03:37.121Z,138.82
2018-07-02T10:06:08.410Z,138.90
2018-07-02T10:08:39.587Z,148.90
2018-07-02T10:11:11.281Z,143.78
2018-07-02T10:13:42.756Z,144.37
2018-07-02T10:16:19.887Z,139.30
2018-07-02T10:18:51.756Z,144.55
2018-07-02T10:21:25.923Z,144.97
2018-07-02T10:23:57.497Z,144.02
2018-07-02T10:26:29.180Z,143.57
2018-07-02T10:29:00.778Z,145.75
2018-07-02T10:31:32.755Z,141.80
2018-07-02T10:34:04.194Z,148.68
2018-07-02T10:36:35.631Z,142.43
2018-07-02T10:39:09.592Z,142.53
2018-07-02T10:41:41.376Z,141.75
2018-07-02T10:44:13.161Z,139.97
2018-07-02T10:46:44.501Z,137.92
2018-07-02T10:49:16.065Z,139.47
2018-07-02T10:51:47.720Z,135.93
2018-07-02T10:54:22.052Z,140.30
2018-07-02T10:56:54.097Z,140.62
2018-07-02T10:59:39.261Z,143.17
2018-07-02T11:02:22.339Z,142.25
2018-07-02T11:05:05.957Z,145.75
2018-07-02T11:07:37.984Z,145.72
2018-07-02T11:10:09.268Z,137.88
2018-07-02T11:12:42.172Z,136.28
2018-07-02T11:15:13.420Z,138.95
2018-07-02T11:17:44.636Z,139.40
2018-07-02T11:20:15.818Z,138.05
2018-07-02T11:22:47.228Z,135.78
2018-07-02T11:25:18.492Z,141.90
2018-07-02T11:27:49.844Z,146.20
2018-07-02T11:30:23.629Z,143.82
2018-07-02T11:32:56.582Z,140.57
2018-07-02T11:35:27.996Z,141.53
2018-07-02T11:37:59.619Z,134.93
2018-07-02T11:40:35.283Z,139.03
2018-07-02T11:43:06.601Z,130.87
2018-07-02T11:45:37.835Z,137.60
2018-07-02T11:48:09.918Z,134.80
2018-07-02T11:50:41.711Z,132.63
2018-07-02T11:53:12.832Z,130.60
2018-07-02T11:55:44.200Z,134.67
2018-07-02T11:58:15.255Z,141.80
2018-07-02T12:00:46.409Z,135.35
2018-07-02T12:03:18.557Z,139.72
2018-07-02T12:05:49.987Z,144.43
2018-07-02T12:08:21.216Z,142.05
2018-07-02T12:10:52.415Z,143.72
2018-07-02T12:13:23.697Z,140.57
2018-07-02T12:15:54.860Z,141.00
2018-07-02T12:18:26.240Z,135.78
2018-07-02T12:20:57.614Z,135.55
2018-07-02T12:23:28.695Z,140.80
2018-07-02T12:26:00.273Z,139.75
2018-07-02T12:28:31.589Z,145.22
2018-07-02T12:31:03.179Z,143.65
2018-07-02T12:33:34.422Z,138.72
2018-07-02T12:36:06.269Z,138.15
2018-07-02T12:38:37.452Z,140.05
2018-07-02T12:41:08.762Z,140.80
2018-07-02T12:43:39.967Z,142.50
2018-07-02T12:46:11.213Z,144.00
2018-07-02T12:48:42.677Z,138.92
2018-07-02T12:51:14.280Z,138.55
2018-07-02T12:53:46.155Z,140.80
2018-07-02T12:56:17.599Z,145.35
2018-07-02T12:58:48.813Z,149.90
2018-07-02T13:01:20.100Z,151.75
2018-07-02T13:03:52.627Z,145.17
2018-07-02T13:06:24.023Z,139.15
2018-07-02T13:08:55.295Z,143.70
2018-07-02T13:11:26.540Z,140.52
2018-07-02T13:13:57.859Z,139.88
2018-07-02T13:16:30.483Z,137.15
2018-07-02T13:19:05.605Z,144.50
2018-07-02T13:21:37.916Z,134.65
2018-07-02T13:24:09.230Z,142.98
2018-07-02T13:26:41.213Z,138.68
2018-07-02T13:29:15.193Z,137.68
2018-07-02T13:31:46.912Z,140.28
2018-07-02T13:34:32.462Z,139.45
2018-07-02T13:37:16.604Z,141.32
2018-07-02T13:39:55.402Z,144.93
2018-07-02T13:42:33.643Z,144.70
2018-07-02T13:45:14.163Z,145.85
2018-07-02T13:48:04.597Z,144.13
2018-07-02T13:50:58.515Z,143.43
2018-07-02T13:53:33.511Z,145.12
2018-07-02T13:56:04.580Z,143.65
2018-07-02T13:58:36.211Z,144.55
2018-07-02T14:01:07.522Z,146.85
2018-07-02T14:03:38.757Z,147.75
2018-07-02T14:06:10.103Z,142.20
2018-07-02T14:08:41.346Z,141.90
2018-07-02T14:11:22.072Z,141.57
2018-07-02T14:13:54.740Z,146.07
2018-07-02T14:16:26.003Z,144.43
2018-07-02T14:18:58.142Z,145.70
2018-07-02T14:21:29.744Z,141.68
2018-07-02T14:24:00.985Z,141.92
2018-07-02T14:26:33.150Z,141.85
2018-07-02T14:29:04.321Z,142.55
2018-07-02T14:31:35.756Z,137.75
2018-07-02T14:34:07.066Z,137.28
2018-07-02T14:36:38.300Z,143.50
2018-07-02T14:39:12.541Z,145.85
2018-07-02T14:41:44.164Z,139.88
2018-07-02T14:44:15.429Z,143.68
2018-07-02T14:46:46.733Z,142.40
2018-07-02T14:49:18.178Z,145.07
2018-07-02T14:51:49.571Z,146.50
2018-07-02T14:54:21.062Z,144.10
2018-07-02T14:56:52.363Z,145.47
2018-07-02T14:59:23.668Z,142.57
2018-07-02T15:01:54.871Z,143.28
2018-07-02T15:04:28.416Z,144.13
2018-07-02T15:07:01.732Z,144.32
2018-07-02T15:09:33.117Z,143.70
2018-07-02T15:12:04.541Z,142.90
2018-07-02T15:14:35.976Z,141.62
2018-07-02T15:17:07.227Z,142.62
2018-07-02T15:19:38.626Z,139.50
2018-07-02T15:22:09.959Z,143.57
2018-07-02T15:24:41.076Z,137.65
2018-07-02T15:27:13.602Z,138.55
2018-07-02T15:29:44.853Z,139.55
2018-07-02T15:32:16.125Z,160.07
2018-07-02T15:34:53.174Z,144.47
2018-07-02T15:37:24.634Z,139.72
2018-07-02T15:39:57.194Z,138.00
2018-07-02T15:42:28.576Z,143.45
2018-07-02T15:45:00.433Z,142.13
2018-07-02T15:47:31.725Z,142.45
2018-07-02T15:50:03.412Z,142.10
2018-07-02T15:52:34.743Z,145.55
2018-07-02T15:55:06.032Z,141.73
2018-07-02T15:57:37.507Z,146.20
2018-07-02T16:00:09.088Z,138.30
2018-07-02T16:02:40.298Z,142.93
2018-07-02T16:05:11.473Z,141.28
2018-07-02T16:07:42.713Z,140.15
2018-07-02T16:10:14.019Z,142.10
2018-07-02T16:12:45.241Z,138.35
2018-07-02T16:15:16.375Z,139.20
2018-07-02T16:17:47.665Z,145.07
2018-07-02T16:20:18.985Z,141.35
2018-07-02T16:22:50.064Z,140.85
2018-07-02T16:25:21.408Z,143.28
2018-07-02T16:27:52.852Z,142.25
2018-07-02T16:30:24.080Z,141.73
2018-07-02T16:32:55.585Z,146.60
2018-07-02T16:35:26.886Z,145.12
2018-07-02T16:37:59.138Z,140.45
2018-07-02T16:40:30.406Z,142.18
2018-07-02T16:43:01.650Z,140.07
2018-07-02T16:45:33.176Z,137.40
2018-07-02T16:48:04.675Z,139.52
2018-07-02T16:50:36.075Z,144.47
2018-07-02T16:53:07.318Z,146.10
2018-07-02T16:55:38.651Z,143.93
2018-07-02T16:58:09.864Z,143.62
2018-07-02T17:00:41.161Z,144.25
2018-07-02T17:03:13.959Z,137.97
2018-07-02T17:05:45.482Z,141.75
2018-07-02T17:08:16.738Z,142.25
2018-07-02T17:10:47.906Z,158.45
2018-07-02T17:13:19.294Z,151.87
2018-07-02T17:15:50.487Z,147.78
2018-07-02T17:18:21.845Z,148.02
2018-07-02T17:20:52.966Z,144.28
2018-07-02T17:23:24.413Z,144.53
2018-07-02T17:25:55.719Z,147.32
2018-07-02T17:28:27.043Z,143.57
2018-07-02T17:30:58.494Z,148.40
2018-07-02T17:33:29.732Z,146.15
2018-07-02T17:36:01.049Z,146.40
2018-07-02T17:38:32.200Z,142.30
2018-07-02T17:41:03.597Z,141.18
2018-07-02T17:43:35.027Z,139.88
2018-07-02T17:46:06.232Z,142.03
2018-07-02T17:48:37.511Z,142.90
2018-07-02T17:51:08.825Z,144.57
2018-07-02T17:53:40.336Z,141.90
2018-07-02T17:56:11.686Z,155.40
2018-07-02T17:58:43.031Z,140.10
2018-07-02T18:01:14.574Z,138.85
2018-07-02T18:03:46.090Z,138.92
2018-07-02T18:06:17.324Z,148.95
2018-07-02T18:08:49.287Z,146.07
2018-07-02T18:11:20.514Z,143.68
2018-07-02T18:13:52.183Z,143.68
2018-07-02T18:16:23.468Z,137.52
2018-07-02T18:18:54.787Z,139.97
2018-07-02T18:21:25.992Z,139.80
2018-07-02T18:23:57.237Z,138.07
2018-07-02T18:26:28.731Z,140.52
2018-07-02T18:29:01.115Z,144.22
2018-07-02T18:31:32.500Z,143.97
2018-07-02T18:34:06.081Z,140.12
2018-07-02T18:36:39.486Z,139.20
2018-07-02T18:39:12.861Z,144.10
2018-07-02T18:41:46.363Z,146.40
2018-07-02T18:44:18.196Z,137.50
2018-07-02T18:46:50.592Z,141.57
2018-07-02T18:49:22.505Z,141.30
2018-07-02T18:51:55.000Z,139.43
2018-07-02T18:54:26.436Z,139.97
2018-07-02T18:56:58.152Z,140.60
2018-07-02T18:59:29.455Z,145.87
2018-07-02T19:02:00.771Z,137.30
2018-07-02T19:04:31.920Z,143.87
2018-07-02T19:07:03.154Z,141.68
2018-07-02T19:09:34.432Z,133.80
2018-07-02T19:12:05.742Z,141.88
2018-07-02T19:14:37.230Z,141.70
2018-07-02T19:17:08.530Z,138.00
2018-07-02T19:19:40.068Z,142.82
2018-07-02T19:22:11.348Z,137.75
2018-07-02T19:24:42.448Z,137.72
2018-07-02T19:27:13.785Z,141.60
2018-07-02T19:29:44.894Z,142.72
2018-07-02T19:32:16.355Z,142.80
2018-07-02T19:34:47.937Z,140.10
2018-07-02T19:37:19.424Z,138.80
2018-07-02T19:39:50.766Z,185.78
2018-07-02T19:42:22.263Z,174.15
2018-07-02T19:44:53.475Z,148.62
2018-07-02T19:47:24.842Z,137.32
2018-07-02T19:49:55.948Z,138.60
2018-07-02T19:52:27.340Z,137.88
2018-07-02T19:54:58.488Z,139.95
2018-07-02T19:57:30.237Z,140.15
2018-07-02T20:00:01.637Z,142.03
2018-07-02T20:02:43.487Z,143.00
2018-07-02T20:05:14.909Z,136.37
2018-07-02T20:07:46.035Z,146.05
2018-07-02T20:10:17.146Z,140.77
2018-07-02T20:12:48.455Z,134.60
2018-07-02T20:15:20.156Z,136.92
2018-07-02T20:17:51.563Z,146.00
2018-07-02T20:20:23.287Z,135.07
2018-07-02T20:22:54.874Z,138.20
2018-07-02T20:25:26.331Z,138.55
2018-07-02T20:27:57.748Z,136.00
2018-07-02T20:30:29.011Z,136.92
2018-07-02T20:33:00.262Z,130.12
2018-07-02T20:35:31.747Z,130.97
2018-07-02T20:38:03.288Z,134.10
2018-07-02T20:40:34.858Z,132.55
2018-07-02T20:43:06.209Z,128.27
2018-07-02T20:45:37.544Z,128.32
2018-07-02T20:48:08.806Z,127.92
2018-07-02T20:50:40.015Z,130.72
2018-07-02T20:53:11.214Z,128.93
2018-07-02T20:55:42.633Z,137.62
2018-07-02T20:58:14.067Z,131.40
2018-07-02T21:00:45.395Z,135.78
2018-07-02T21:03:16.566Z,138.00
2018-07-02T21:05:48.107Z,128.87
2018-07-02T21:08:19.498Z,130.20
2018-07-02T21:10:50.876Z,129.85
2018-07-02T21:13:22.230Z,127.75
2018-07-02T21:15:53.421Z,127.97
2018-07-02T21:18:24.713Z,126.78
2018-07-02T21:20:55.959Z,131.07
2018-07-02T21:23:27.116Z,133.00
2018-07-02T21:25:58.463Z,125.60
2018-07-02T21:28:29.867Z,127.72
2018-07-02T21:31:01.160Z,136.12
2018-07-02T21:33:32.455Z,135.68
2018-07-02T21:36:03.812Z,133.72
2018-07-02T21:38:35.137Z,129.93
2018-07-02T21:41:06.515Z,131.30
2018-07-02T21:43:37.653Z,128.05
2018-07-02T21:46:08.951Z,131.72
2018-07-02T21:48:40.249Z,129.20
2018-07-02T21:51:11.247Z,132.10
2018-07-02T21:53:42.380Z,122.55
2018-07-02T21:56:14.481Z,127.10
2018-07-02T21:58:45.769Z,126.62
2018-07-02T22:01:21.406Z,128.10
2018-07-02T22:03:52.721Z,130.75
2018-07-02T22:06:24.041Z,123.38
2018-07-02T22:08:55.281Z,126.40
2018-07-02T22:11:26.527Z,128.65
2018-07-02T22:13:57.861Z,130.57
2018-07-02T22:16:29.044Z,129.32
2018-07-02T22:19:00.556Z,126.90
2018-07-02T22:21:31.841Z,127.87
2018-07-02T22:24:03.214Z,131.00
2018-07-02T22:26:36.253Z,126.58
2018-07-02T22:29:07.567Z,128.05
2018-07-02T22:31:38.771Z,132.18
2018-07-02T22:34:10.066Z,129.90
2018-07-02T22:36:41.378Z,127.27
2018-07-02T22:39:12.635Z,131.20
2018-07-02T22:41:45.607Z,127.15
2018-07-02T22:44:17.374Z,130.35
2018-07-02T22:46:48.719Z,132.60
2018-07-02T22:49:19.914Z,127.95
2018-07-02T22:51:51.237Z,132.67
2018-07-02T22:54:22.480Z,130.90
2018-07-02T22:56:53.819Z,135.80
2018-07-02T22:59:25.005Z,127.82
2018-07-02T23:01:56.366Z,127.78
2018-07-02T23:04:27.907Z,128.95
2018-07-02T23:06:59.386Z,124.87
2018-07-02T23:09:30.754Z,128.57
2018-07-02T23:12:03.772Z,128.47
2018-07-02T23:14:35.124Z,127.90
2018-07-02T23:17:06.479Z,129.32
2018-07-02T23:19:39.663Z,127.70
2018-07-02T23:22:11.340Z,129.23
2018-07-02T23:24:42.582Z,127.05
2018-07-02T23:27:14.228Z,126.42
2018-07-02T23:29:45.663Z,125.97
2018-07-02T23:32:16.997Z,128.18
2018-07-02T23:34:48.142Z,126.00
2018-07-02T23:37:19.624Z,122.82
2018-07-02T23:39:50.933Z,128.25
2018-07-02T23:42:22.448Z,131.82
2018-07-02T23:44:53.757Z,127.47
2018-07-02T23:47:25.312Z,127.62
2018-07-02T23:49:56.602Z,130.97
2018-07-02T23:52:27.990Z,124.47
2018-07-02T23:54:59.239Z,126.78
2018-07-02T23:57:30.919Z,126.62
